»·PEaware :: DIHNF KAVX-L08

DIHNF :: KAVX-L08

FLIGHT INFORMATION

Flight Status: Arrived
Operator: Unknown
More flights by this operator :: More flights under this callsign
Pilot: Klaus A. (15485)
Aircraft: BEECH AIRCRAFT BARON
(BE58)
More flights by this aircraft type
Origin: KAVX Catalina
United States
Destination: L08 Borrego Valley
United States
More flights between these airports :: More routes between these airports
Route: + SXC V208 JLI
File this flight plan on PilotEdge
Remarks:
Altitude:
(Current/Filed)
10,000ft
Speed:
(Current/Filed)
170kts
Departed: 08-Feb-19 10:28 AM
Arrived: 08-Feb-19 11:30 AM
Distance/Time
Traveled:
105nm/1:02
Distance/Time
To Go:
Arrived

Flight Plot

Page will automatically refresh every two minutes.

Flight plan parsing failed; only flown route is shown


Map Options




Map Legend


Flown Route
Filed Route
Departure Airport
Arrival Airport
Navaid (VOR, NDB)
Fix

Horizontal Profiles

Position Reports

Time Latitude Longitude Heading Altitude Ground
Speed
08-Feb-19 10:13 33.403113 -118.415849 33 1606ft 0kts
08-Feb-19 10:14 33.403113 -118.415849 33 1606ft 0kts
08-Feb-19 10:15 33.403113 -118.415849 33 1606ft 0kts
08-Feb-19 10:16 33.403113 -118.415849 33 1606ft 0kts
08-Feb-19 10:17 33.403113 -118.415849 33 1606ft 0kts
08-Feb-19 10:18 33.403113 -118.415849 33 1606ft 0kts
08-Feb-19 10:19 33.403113 -118.415849 33 1606ft 0kts
08-Feb-19 10:20 33.403113 -118.415849 33 1606ft 0kts
08-Feb-19 10:21 33.403113 -118.415849 33 1606ft 0kts
08-Feb-19 10:22 33.403113 -118.415849 33 1606ft 0kts
08-Feb-19 10:23 33.403622 -118.415349 48 1606ft 11kts
08-Feb-19 10:24 33.406634 -118.412303 54 1606ft 18kts
08-Feb-19 10:25 33.407142 -118.411444 53 1606ft 0kts
08-Feb-19 10:26 33.407142 -118.411444 53 1606ft 0kts
08-Feb-19 10:27 33.406708 -118.412864 233 1606ft 53kts
08-Feb-19 10:28 33.386008 -118.435726 165 2734ft 125kts
08-Feb-19 10:29 33.377669 -118.399775 94 4475ft 126kts
08-Feb-19 10:30 33.372080 -118.345660 105 4162ft 176kts
08-Feb-19 10:31 33.361386 -118.287803 99 3969ft 178kts
08-Feb-19 10:32 33.354231 -118.230520 98 4073ft 173kts
08-Feb-19 10:33 33.347509 -118.173335 101 4076ft 174kts
08-Feb-19 10:34 33.340982 -118.122939 100 5169ft 137kts
08-Feb-19 10:35 33.336497 -118.078767 101 6320ft 132kts
08-Feb-19 10:36 33.331587 -118.034733 99 7325ft 136kts
08-Feb-19 10:37 33.325290 -117.989897 104 8238ft 137kts
08-Feb-19 10:38 33.313443 -117.947366 104 9005ft 140kts
08-Feb-19 10:39 33.307135 -117.901297 103 9756ft 140kts
08-Feb-19 10:40 33.299449 -117.852195 101 9944ft 165kts
08-Feb-19 10:41 33.291753 -117.797381 102 10004ft 170kts
08-Feb-19 10:42 33.283871 -117.740673 101 10004ft 174kts
08-Feb-19 10:43 33.275977 -117.683441 101 10004ft 175kts
08-Feb-19 10:44 33.268083 -117.626187 101 10012ft 174kts
08-Feb-19 10:45 33.260144 -117.568703 101 10013ft 175kts
08-Feb-19 10:46 33.252214 -117.511441 101 10013ft 175kts
08-Feb-19 10:47 33.244145 -117.453471 101 9976ft 177kts
08-Feb-19 10:48 33.236041 -117.395454 101 9976ft 177kts
08-Feb-19 10:49 33.227927 -117.337420 102 9976ft 177kts
08-Feb-19 10:50 33.220420 -117.280601 101 9976ft 177kts
08-Feb-19 10:51 33.213470 -117.222188 100 9967ft 177kts
08-Feb-19 10:52 33.206836 -117.163967 100 9976ft 177kts
08-Feb-19 10:53 33.200297 -117.105838 100 9976ft 177kts
08-Feb-19 10:54 33.193701 -117.047474 100 9976ft 177kts
08-Feb-19 10:55 33.187653 -116.994115 100 9967ft 177kts
08-Feb-19 10:56 33.181093 -116.936364 100 9981ft 176kts
08-Feb-19 10:57 33.174451 -116.878138 100 9985ft 177kts
08-Feb-19 10:58 33.167778 -116.819868 100 9985ft 177kts
08-Feb-19 10:59 33.161079 -116.761620 100 9985ft 177kts
08-Feb-19 11:00 33.154362 -116.703465 100 9985ft 177kts
08-Feb-19 11:01 33.147614 -116.645272 100 9985ft 177kts
08-Feb-19 11:02 33.143338 -116.587030 69 9984ft 181kts
08-Feb-19 11:03 33.154932 -116.529843 85 10031ft 178kts
08-Feb-19 11:04 33.161275 -116.471139 85 10031ft 179kts
08-Feb-19 11:05 33.167661 -116.412042 85 10031ft 179kts
08-Feb-19 11:06 33.174059 -116.352932 85 10031ft 179kts
08-Feb-19 11:07 33.180427 -116.294155 85 10031ft 179kts
08-Feb-19 11:08 33.186711 -116.236255 88 10029ft 172kts
08-Feb-19 11:09 33.185046 -116.179656 95 10031ft 170kts
08-Feb-19 11:10 33.182949 -116.123127 95 10031ft 170kts
08-Feb-19 11:11 33.181991 -116.066638 92 10034ft 170kts
08-Feb-19 11:12 33.181517 -116.010222 93 10038ft 170kts
08-Feb-19 11:13 33.179475 -115.955312 99 9549ft 157kts
08-Feb-19 11:14 33.177809 -115.902723 93 8716ft 160kts
08-Feb-19 11:15 33.178475 -115.850315 91 7872ft 155kts
08-Feb-19 11:16 33.195978 -115.811528 344 6886ft 168kts
08-Feb-19 11:17 33.216720 -115.856331 279 5862ft 154kts
08-Feb-19 11:19 33.225850 -115.904210 278 4942ft 143kts
08-Feb-19 11:20 33.235962 -115.949974 277 4014ft 143kts
08-Feb-19 11:21 33.239811 -115.996078 276 3120ft 138kts
08-Feb-19 11:22 33.247883 -116.039652 269 3281ft 131kts
08-Feb-19 11:23 33.250346 -116.083422 270 3393ft 132kts
08-Feb-19 11:24 33.256815 -116.127837 276 3289ft 135kts
08-Feb-19 11:25 33.261797 -116.167273 270 2577ft 105kts
08-Feb-19 11:26 33.267310 -116.202888 276 2510ft 109kts
08-Feb-19 11:27 33.266798 -116.239324 266 2152ft 111kts
08-Feb-19 11:28 33.262479 -116.275427 253 1222ft 106kts
08-Feb-19 11:29 33.259140 -116.309663 261 579ft 99kts
08-Feb-19 11:30 33.258502 -116.322159 196 524ft 11kts
08-Feb-19 11:31 33.257785 -116.323350 269 524ft 0kts
08-Feb-19 11:32 33.257785 -116.323350 269 524ft 0kts
08-Feb-19 11:33 33.257785 -116.323350 269 524ft 0kts
08-Feb-19 11:34 33.257785 -116.323350 269 524ft 0kts
08-Feb-19 11:35 33.257785 -116.323350 269 524ft 0kts
08-Feb-19 11:36 33.257785 -116.323350 269 524ft 0kts
08-Feb-19 11:37 33.257785 -116.323350 269 524ft 0kts
08-Feb-19 11:37 33.257785 -116.323350 269 524ft 0kts
08-Feb-19 11:38 33.257785 -116.323350 269 524ft 0kts
08-Feb-19 11:40 33.257785 -116.323350 269 524ft 0kts
08-Feb-19 11:41 33.257785 -116.323350 269 524ft 0kts
08-Feb-19 11:41 33.257785 -116.323350 269 524ft 0kts
08-Feb-19 11:42 33.257785 -116.323350 269 524ft 0kts
08-Feb-19 11:43 33.257785 -116.323350 269 524ft 0kts

Navigation Log

Ident Type
Flight plan parsing failed, navigation log unavailable